Worcester, NY (12197)

7:21 AM EDT on October 21, 2014 (GMT -0400)
Worcester Farm | Change Station
CLOSE
Current Station
Personal Weather Station
Location: Worcester, NY
Elevation: 1759 ft
Nearby Weather Stations

Elev 1759 ft 42.62 °N, 74.75 °W | Updated 6 minutes ago

Overcast
Overcast
46.7 °F
Feels Like 47 °F
N
0.0
Wind Variable Wind from SSE
Gusts 1.0 mph

Today
High -- | Low -- °F
--% Chance of Precip.
Yesterday
High -- | Low -- °F
Precip. -- in
7:19 AM 6:07 PM
Waning Crescent, 6% visible
Pressure 29.91 in
Visibility 6.0 miles
Clouds Mostly Cloudy 5500 ft
Overcast 10000 ft
Windchill 47 °F
Dew Point 43 °F
Humidity 85%
Rainfall 0.00 in
Snow Depth Not available.
UV 0 out of 12
Pollen .10 out of 12
PM2.5 Good
Flu Activity Sporadic
METAR KALB 211051Z 00000KT 6SM -RA BR BKN055 OVC100 09/08 A2991 RMK AO2 SLP129 P0005 T00940078

More Conditions Fewer Conditions

Pressure 29.91 in
Visibility 6.0 miles
Clouds Mostly Cloudy 5500 ft
Overcast 10000 ft
Windchill 47 °F
Dew Point 43 °F
Humidity 85%
Rainfall 0.00 in
Snow Depth Not available.
UV 0 out of 12
Pollen .10 out of 12
PM2.5 Good
Flu Activity Sporadic
METAR KALB 211051Z 00000KT 6SM -RA BR BKN055 OVC100 09/08 A2991 RMK AO2 SLP129 P0005 T00940078

More Conditions Fewer Conditions

Nowcast | as of 6:41 am EDT on October 21, 2014

Scattered showers will be over the region through 10 am. Rainfall amounts will average from a trace to a few hundredths of an inch.

×

10-Day Weather Forecast

Almanac

Astronomy

Oct. 21, 2014 Rise Set
Actual Time 7:19 AM EDT 6:07 PM EDT
Civil Twilight 6:50 AM EDT 6:36 PM EDT
Nautical Twilight 6:17 AM EDT 7:08 PM EDT
Astronomical Twilight 5:45 AM EDT 7:41 PM EDT
Moon 4:58 AM EDT 5:02 PM EDT
Length of Visible Light 11h 45m
Length of Day
10h 48m
Tomorrow will be 2m 43s shorter.
Waning Crescent, 6% of the Moon is Illuminated
Today
Waning Crescent
Oct 23
New
Oct 30
First Quarter
Nov 6
Full
Nov 14
Last Quarter

Today's Extremes

State Highs State Lows

Community

WunderPhotos

Upload Photos

1,763,627 photos uploaded!

Nearby

Air Quality

  Air Quality AQ Index Pollutant
Yesterday Good
OZONE
Yesterday Good
PM2.5
Current Good
PM2.5
Tuesday Good
PM2.5

Snow Depth

Station Depth Elevation
No new snow has been reported.

Earthquake Activity

City Distance Mag. Time & Date
No recent earthquake activity has been reported nearby.
Minimum magnitude displayed is 2.5.

Coastal Water Temperatures

Place Temperature
No Stations Reporting

Nearby Weather Stations